Terminal Aerodrome Forecast
Issued by NWS Jackson, KY

Home | Current Version | Previous Version | Text Only | Print | Product List | Glossary On
Versions: 1 2 3 4 5 6 7 8 9 10 11 12 13 14 15 16 17
000
FTUS43 KJKL 261722
TAFLOZ
TAF
KLOZ 261722Z 2618/2718 VRB06KT P6SM SKC
     FM270300 17008KT P6SM SKC WS020/19035KT
     FM270600 17009KT P6SM FEW250 WS020/18045KT
     FM271100 19008KT P6SM SCT015 BKN025
     FM271200 19012KT 6SM -SHRA VCTS SCT015CB BKN035
     FM271500 19012KT P6SM OVC015=

USA.gov is the U.S. government's official web portal to all federal, state and local government web resources and services.